Terminal Aerodrome Forecast
Issued by NWS Wilmington, OH

Current Version | Previous Version | Text Only | Print | Product List | Glossary Off
Versions: 1 2 3 4 5 6 7 8 9 10 11 12 13 14 15 16 17 18 19 20 21 22 23

000
FTUS41 KILN 271723
TAFCVG
TAF
KCVG 271723Z 2718/2824 01007KT P6SM FEW035 BKN050
     FM272200 03006KT P6SM SCT050
     FM280000 07003KT P6SM SKC
     FM281000 08003KT 5SM BR SKC
     FM281300 11006KT P6SM SKC
     FM281700 14006KT P6SM SCT250=

USA.gov is the U.S. government's official web portal to all federal, state and local government web resources and services.